Weather History for Pratt, KS

Change the Weather History Date:

Tuesday, November 26, 2013

  Actual Average (KP28) Record (KP28)
Temperature  
Mean Temperature 29 °F 40 °F  
Max Temperature 39 °F 53 °F 84 °F (1910)
Min Temperature 19 °F 28 °F 4 °F (1938)
Degree Days  
Heating Degree Days 36 24  
Month to date heating degree days 485  
Since 1 July heating degree days 754  
Cooling Degree Days 0 0  
Month to date cooling degree days 0  
Year to date cooling degree days 1769  
Moisture  
Dew Point 21 °F    
Average Humidity 72    
Maximum Humidity 93    
Minimum Humidity 48    
Precipitation  
Precipitation 0.00 in 0.02 in 1.40 in (1935)
Month to date precipitation 0.85  
Year to date precipitation 26.14  
Snow  
Snow 0.00 in 0.00 in - ()
Month to date snowfall 0.1  
Since 1 July snowfall 0.1  
Since 1 September snowfall 0.1  
Snow Depth -    
Sea Level Pressure  
Sea Level Pressure 30.33 in    
Wind  
Wind Speed 11 mph (NNW)    
Max Wind Speed 25 mph    
Max Gust Speed 31 mph    
Visibility 10 miles    
Events      
T = Trace of Precipitation, MM = Missing Value Source: NWS Daily Summary

Daily Weather History Graph

Daily Weather History Graph

Search for Another Location

Airport:

Trip Planner

Search our weather history database for the weather conditions in past years. The results will help you decide how hot, cold, wet, or windy it might be!

Date:

Astronomy

Nov. 26, 2013 Rise Set
Actual Time 7:26 AM CST 5:17 PM CST
Civil Twilight 6:58 AM CST 5:46 PM CST
Nautical Twilight 6:25 AM CST 6:18 PM CST
Astronomical Twilight 5:54 AM CST 6:50 PM CST
Moon 12:39 AM CST (11/26) 1:18 PM CST (11/26)
Length of Visible Light 10h 48m
Length of Day
9h 51m
Last Quarter, 41% of the Moon is Illuminated
Nov 26
Last Quarter
Dec 2
New
Dec 9
First Quarter
Dec 17
Full
Dec 25
Last Quarter

Hourly Weather History & Observations

Time (CST) Temp. Windchill Dew Point Humidity Pressure Visibility Wind Dir Wind Speed Gust Speed Precip Events Conditions
12:15 AM 28.4 °F 20.4 °F 26.6 °F 93% 30.23 in 10.0 mi NNW 8.1 mph - N/A   Clear
12:35 AM 28.4 °F 20.4 °F 24.8 °F 86% 30.23 in 10.0 mi NNW 8.1 mph - N/A   Clear
12:55 AM 26.6 °F 17.5 °F 23.0 °F 86% 30.23 in 10.0 mi NNW 9.2 mph - N/A   Clear
1:15 AM 28.4 °F 19.1 °F 24.8 °F 86% 30.23 in 10.0 mi North 10.4 mph - N/A   Clear
1:35 AM 28.4 °F 18.5 °F 24.8 °F 86% 30.23 in 10.0 mi North 11.5 mph - N/A   Clear
1:55 AM 28.4 °F 19.7 °F 23.0 °F 80% 30.23 in 10.0 mi North 9.2 mph - N/A   Clear
2:15 AM 28.4 °F 19.7 °F 23.0 °F 80% 30.23 in 10.0 mi NNW 9.2 mph - N/A   Clear
2:35 AM 28.4 °F 20.4 °F 23.0 °F 80% 30.24 in 10.0 mi NNW 8.1 mph - N/A   Clear
2:55 AM 26.6 °F 18.2 °F 23.0 °F 86% 30.24 in 10.0 mi North 8.1 mph - N/A   Clear
3:15 AM 26.6 °F 18.2 °F 21.2 °F 80% 30.25 in 10.0 mi North 8.1 mph - N/A   Clear
3:35 AM 26.6 °F 17.5 °F 23.0 °F 86% 30.25 in 10.0 mi NNW 9.2 mph - N/A   Clear
3:55 AM 26.6 °F 17.5 °F 23.0 °F 86% 30.25 in 10.0 mi North 9.2 mph - N/A   Clear
4:15 AM 26.6 °F 19.1 °F 21.2 °F 80% 30.26 in 10.0 mi NNW 6.9 mph - N/A   Clear
4:35 AM 24.8 °F 16.1 °F 21.2 °F 86% 30.26 in 10.0 mi NNW 8.1 mph - N/A   Clear
4:55 AM 26.6 °F 18.2 °F 21.2 °F 80% 30.26 in 10.0 mi NNW 8.1 mph - N/A   Clear
5:15 AM 24.8 °F 16.1 °F 21.2 °F 86% 30.26 in 10.0 mi NNW 8.1 mph - N/A   Clear
5:35 AM 26.6 °F 16.8 °F 21.2 °F 80% 30.27 in 10.0 mi NNW 10.4 mph - N/A   Clear
5:55 AM 24.8 °F 16.1 °F 21.2 °F 86% 30.27 in 10.0 mi NNW 8.1 mph - N/A   Clear
6:15 AM 24.8 °F 16.1 °F 21.2 °F 86% 30.28 in 10.0 mi NNW 8.1 mph - N/A   Clear
6:35 AM 26.6 °F 17.5 °F 21.2 °F 80% 30.28 in 10.0 mi NNW 9.2 mph - N/A   Clear
6:55 AM 26.6 °F 16.8 °F 21.2 °F 80% 30.29 in 10.0 mi NNW 10.4 mph - N/A   Clear
7:15 AM 24.8 °F 14.6 °F 21.2 °F 86% 30.30 in 10.0 mi NNW 10.4 mph - N/A   Clear
7:35 AM 24.8 °F 14.6 °F 21.2 °F 86% 30.30 in 10.0 mi NNW 10.4 mph - N/A   Clear
7:55 AM 26.6 °F 16.2 °F 21.2 °F 80% 30.31 in 10.0 mi NNW 11.5 mph - N/A   Clear
8:15 AM 26.6 °F 15.7 °F 21.2 °F 80% 30.31 in 10.0 mi NNW 12.7 mph - N/A   Clear
8:35 AM 28.4 °F 18.5 °F 23.0 °F 80% 30.32 in 10.0 mi NNW 11.5 mph - N/A   Clear
8:55 AM 30.2 °F 18.1 °F 23.0 °F 75% 30.32 in 10.0 mi North 18.4 mph - N/A   Clear
9:15 AM 32.0 °F 20.1 °F 24.8 °F 75% 30.32 in 10.0 mi North 19.6 mph 25.3 mph N/A   Clear
9:35 AM 32.0 °F 19.8 °F 24.8 °F 75% 30.33 in 10.0 mi North 20.7 mph 26.5 mph N/A   Clear
9:55 AM 33.8 °F 21.6 °F 24.8 °F 70% 30.34 in 10.0 mi North 23.0 mph 27.6 mph N/A   Clear
10:15 AM 35.6 °F 24.5 °F 23.0 °F 60% 30.34 in 10.0 mi North 20.7 mph 26.5 mph N/A   Clear
10:35 AM 35.6 °F 24.5 °F 23.0 °F 60% 30.34 in 10.0 mi North 20.7 mph 28.8 mph N/A   Clear
10:55 AM 35.6 °F 23.4 °F 23.0 °F 60% 30.35 in 10.0 mi North 25.3 mph 28.8 mph N/A   Clear
11:15 AM 37.4 °F 27.2 °F 23.0 °F 56% 30.34 in 10.0 mi North 19.6 mph 27.6 mph N/A   Clear
11:35 AM 37.4 °F 27.2 °F 21.2 °F 52% 30.34 in 10.0 mi North 19.6 mph 29.9 mph N/A   Clear
11:55 AM 37.4 °F 26.4 °F 21.2 °F 52% 30.34 in 10.0 mi North 23.0 mph 28.8 mph N/A   Clear
12:15 PM 39.2 °F 29.3 °F 21.2 °F 49% 30.35 in 10.0 mi North 20.7 mph 27.6 mph N/A   Clear
12:35 PM 39.2 °F 29.0 °F 21.2 °F 49% 30.34 in 10.0 mi North 21.9 mph 28.8 mph N/A   Clear
12:55 PM 39.2 °F 28.7 °F 23.0 °F 52% 30.34 in 10.0 mi North 23.0 mph - N/A   Clear
1:15 PM 39.2 °F 28.5 °F 21.2 °F 49% 30.33 in 10.0 mi North 24.2 mph - N/A   Clear
1:35 PM 37.4 °F 26.4 °F 21.2 °F 52% 30.34 in 10.0 mi North 23.0 mph 31.1 mph N/A   Clear
1:55 PM 37.4 °F 26.1 °F 21.2 °F 52% 30.34 in 10.0 mi North 24.2 mph 31.1 mph N/A   Clear
2:15 PM 37.4 °F 27.2 °F 21.2 °F 52% 30.34 in 10.0 mi North 19.6 mph 26.5 mph N/A   Clear
2:35 PM 37.4 °F 27.5 °F 21.2 °F 52% 30.34 in 10.0 mi North 18.4 mph - N/A   Clear
2:55 PM 37.4 °F 26.9 °F 19.4 °F 48% 30.34 in 10.0 mi North 20.7 mph 26.5 mph N/A   Clear
3:15 PM 37.4 °F 27.2 °F 21.2 °F 52% 30.35 in 10.0 mi North 19.6 mph 25.3 mph N/A   Clear
3:35 PM 37.4 °F 27.8 °F 19.4 °F 48% 30.35 in 10.0 mi North 17.3 mph 20.7 mph N/A   Clear
3:55 PM 35.6 °F 24.8 °F 19.4 °F 52% 30.36 in 10.0 mi North 19.6 mph - N/A   Clear
4:15 PM 35.6 °F 26.2 °F 19.4 °F 52% 30.37 in 10.0 mi North 15.0 mph - N/A   Clear
4:35 PM 33.8 °F 23.2 °F 19.4 °F 56% 30.37 in 10.0 mi North 17.3 mph - N/A   Clear
4:55 PM 33.8 °F 23.5 °F 19.4 °F 56% 30.38 in 10.0 mi North 16.1 mph 20.7 mph N/A   Clear
5:15 PM 32.0 °F 23.0 °F 19.4 °F 60% 30.38 in 10.0 mi North 11.5 mph - N/A   Clear
5:35 PM 32.0 °F 26.4 °F 19.4 °F 60% 30.38 in 10.0 mi North 5.8 mph - N/A   Clear
5:55 PM 30.2 °F 26.7 °F 19.4 °F 64% 30.39 in 10.0 mi NNE 3.5 mph - N/A   Clear
6:15 PM 28.4 °F 21.2 °F 19.4 °F 69% 30.38 in 10.0 mi North 6.9 mph - N/A   Clear
6:35 PM 28.4 °F 23.3 °F 19.4 °F 69% 30.39 in 10.0 mi NNW 4.6 mph - N/A   Clear
6:55 PM 28.4 °F 22.2 °F 19.4 °F 69% 30.39 in 10.0 mi North 5.8 mph - N/A   Clear
7:15 PM 23.0 °F 13.9 °F 17.6 °F 80% 30.39 in 10.0 mi North 8.1 mph - N/A   Clear
7:35 PM 23.0 °F 17.0 °F 17.6 °F 80% 30.40 in 10.0 mi NNW 4.6 mph - N/A   Clear
7:55 PM 23.0 °F 18.4 °F 17.6 °F 80% 30.41 in 10.0 mi NNW 3.5 mph - N/A   Clear
8:15 PM 23.0 °F 17.0 °F 17.6 °F 80% 30.41 in 10.0 mi NNW 4.6 mph - N/A   Clear
8:35 PM 23.0 °F 17.0 °F 17.6 °F 80% 30.41 in 10.0 mi NNW 4.6 mph - N/A   Clear
8:55 PM 21.2 °F 13.6 °F 17.6 °F 86% 30.41 in 10.0 mi NNW 5.8 mph - N/A   Clear
9:15 PM 21.2 °F 13.6 °F 17.6 °F 86% 30.41 in 10.0 mi NNW 5.8 mph - N/A   Clear
9:35 PM 21.2 °F 14.9 °F 17.6 °F 86% 30.41 in 10.0 mi NW 4.6 mph - N/A   Clear
9:55 PM 21.2 °F 12.6 °F 15.8 °F 80% 30.42 in 10.0 mi NW 6.9 mph - N/A   Clear
10:15 PM 21.2 °F 12.6 °F 15.8 °F 80% 30.42 in 10.0 mi NNW 6.9 mph - N/A   Clear
10:35 PM 19.4 °F 10.4 °F 14.0 °F 80% 30.43 in 10.0 mi North 6.9 mph - N/A   Clear
10:55 PM 19.4 °F 11.5 °F 14.0 °F 80% 30.43 in 10.0 mi North 5.8 mph - N/A   Clear
11:15 PM 19.4 °F 11.5 °F 14.0 °F 80% 30.43 in 10.0 mi North 5.8 mph - N/A   Clear
11:35 PM 19.4 °F 11.5 °F 14.0 °F 80% 30.44 in 10.0 mi North 5.8 mph - N/A   Clear
11:55 PM 19.4 °F 14.3 °F 14.0 °F 80% 30.44 in 10.0 mi NW 3.5 mph - N/A   Clear